sensor_id;sensor_type;location;lat;lon;timestamp;P1;durP1;ratioP1;P2;durP2;ratioP2
12597;SDS011;6364;53.590;9.956;2022-12-18T00:01:20;25.25;;;13.88;;
12597;SDS011;6364;53.590;9.956;2022-12-18T00:03:45;23.83;;;13.45;;
12597;SDS011;6364;53.590;9.956;2022-12-18T00:06:11;25.08;;;13.95;;
12597;SDS011;6364;53.590;9.956;2022-12-18T00:08:37;28.33;;;13.65;;
12597;SDS011;6364;53.590;9.956;2022-12-18T00:11:06;29.85;;;13.73;;
12597;SDS011;6364;53.590;9.956;2022-12-18T00:13:32;25.75;;;13.90;;
12597;SDS011;6364;53.590;9.956;2022-12-18T00:16:01;28.17;;;14.15;;
12597;SDS011;6364;53.590;9.956;2022-12-18T00:18:28;27.67;;;13.82;;
12597;SDS011;6364;53.590;9.956;2022-12-18T00:20:53;25.45;;;13.50;;
12597;SDS011;6364;53.590;9.956;2022-12-18T00:23:19;26.17;;;12.98;;
12597;SDS011;6364;53.590;9.956;2022-12-18T00:25:44;25.77;;;14.38;;
12597;SDS011;6364;53.590;9.956;2022-12-18T00:28:09;26.60;;;13.10;;
12597;SDS011;6364;53.590;9.956;2022-12-18T00:30:34;24.98;;;13.35;;
12597;SDS011;6364;53.590;9.956;2022-12-18T00:33:00;33.58;;;13.70;;
12597;SDS011;6364;53.590;9.956;2022-12-18T00:35:25;23.38;;;13.00;;
12597;SDS011;6364;53.590;9.956;2022-12-18T00:37:50;27.73;;;14.30;;
12597;SDS011;6364;53.590;9.956;2022-12-18T00:40:16;29.38;;;14.10;;
12597;SDS011;6364;53.590;9.956;2022-12-18T00:42:41;25.48;;;13.80;;
12597;SDS011;6364;53.590;9.956;2022-12-18T00:45:28;25.88;;;13.05;;
12597;SDS011;6364;53.590;9.956;2022-12-18T00:47:55;25.65;;;14.07;;
12597;SDS011;6364;53.590;9.956;2022-12-18T00:50:22;28.13;;;13.82;;
12597;SDS011;6364;53.590;9.956;2022-12-18T00:52:48;29.02;;;14.38;;
12597;SDS011;6364;53.590;9.956;2022-12-18T00:55:14;31.80;;;13.88;;
12597;SDS011;6364;53.590;9.956;2022-12-18T00:57:40;28.38;;;14.43;;
12597;SDS011;6364;53.590;9.956;2022-12-18T01:00:06;25.42;;;13.65;;
12597;SDS011;6364;53.590;9.956;2022-12-18T01:02:32;28.00;;;13.35;;
12597;SDS011;6364;53.590;9.956;2022-12-18T01:04:57;27.60;;;13.68;;
12597;SDS011;6364;53.590;9.956;2022-12-18T01:07:22;25.08;;;14.77;;
12597;SDS011;6364;53.590;9.956;2022-12-18T01:09:48;29.83;;;13.70;;
12597;SDS011;6364;53.590;9.956;2022-12-18T01:12:13;26.98;;;13.80;;
12597;SDS011;6364;53.590;9.956;2022-12-18T01:14:38;29.70;;;13.93;;
12597;SDS011;6364;53.590;9.956;2022-12-18T01:17:04;23.20;;;13.07;;
12597;SDS011;6364;53.590;9.956;2022-12-18T01:19:29;27.33;;;13.48;;
12597;SDS011;6364;53.590;9.956;2022-12-18T01:21:55;26.90;;;13.25;;
12597;SDS011;6364;53.590;9.956;2022-12-18T01:24:20;29.25;;;13.27;;
12597;SDS011;6364;53.590;9.956;2022-12-18T01:26:45;25.17;;;12.77;;
12597;SDS011;6364;53.590;9.956;2022-12-18T01:29:11;26.08;;;13.02;;
12597;SDS011;6364;53.590;9.956;2022-12-18T01:31:36;21.00;;;11.82;;
12597;SDS011;6364;53.590;9.956;2022-12-18T01:34:02;22.48;;;12.25;;
12597;SDS011;6364;53.590;9.956;2022-12-18T01:36:33;22.70;;;11.35;;
12597;SDS011;6364;53.590;9.956;2022-12-18T01:39:00;22.20;;;11.40;;
12597;SDS011;6364;53.590;9.956;2022-12-18T01:41:28;23.85;;;12.80;;
12597;SDS011;6364;53.590;9.956;2022-12-18T01:47:33;22.25;;;11.48;;
12597;SDS011;6364;53.590;9.956;2022-12-18T01:50:14;25.30;;;12.88;;
12597;SDS011;6364;53.590;9.956;2022-12-18T01:52:47;26.48;;;12.50;;
12597;SDS011;6364;53.590;9.956;2022-12-18T01:55:28;22.27;;;12.20;;
12597;SDS011;6364;53.590;9.956;2022-12-18T01:57:56;23.65;;;12.27;;
12597;SDS011;6364;53.590;9.956;2022-12-18T02:00:23;22.90;;;12.85;;
12597;SDS011;6364;53.590;9.956;2022-12-18T02:02:49;27.95;;;11.75;;
12597;SDS011;6364;53.590;9.956;2022-12-18T02:05:21;24.60;;;11.98;;
12597;SDS011;6364;53.590;9.956;2022-12-18T02:07:57;24.95;;;11.60;;
12597;SDS011;6364;53.590;9.956;2022-12-18T02:10:39;23.65;;;11.80;;
12597;SDS011;6364;53.590;9.956;2022-12-18T02:13:14;26.70;;;12.38;;
12597;SDS011;6364;53.590;9.956;2022-12-18T02:18:41;21.55;;;11.77;;
12597;SDS011;6364;53.590;9.956;2022-12-18T02:24:17;31.33;;;12.65;;
12597;SDS011;6364;53.590;9.956;2022-12-18T02:27:01;24.88;;;11.75;;
12597;SDS011;6364;53.590;9.956;2022-12-18T02:29:31;21.52;;;11.65;;
12597;SDS011;6364;53.590;9.956;2022-12-18T02:31:59;25.15;;;12.73;;
12597;SDS011;6364;53.590;9.956;2022-12-18T02:34:26;24.20;;;12.15;;
12597;SDS011;6364;53.590;9.956;2022-12-18T02:36:54;22.58;;;11.65;;
12597;SDS011;6364;53.590;9.956;2022-12-18T02:39:20;24.25;;;11.48;;
12597;SDS011;6364;53.590;9.956;2022-12-18T02:41:47;23.52;;;11.88;;
12597;SDS011;6364;53.590;9.956;2022-12-18T02:44:13;23.45;;;11.40;;
12597;SDS011;6364;53.590;9.956;2022-12-18T02:46:40;26.33;;;12.90;;
12597;SDS011;6364;53.590;9.956;2022-12-18T02:49:12;24.67;;;12.25;;
12597;SDS011;6364;53.590;9.956;2022-12-18T02:54:56;27.40;;;12.68;;
12597;SDS011;6364;53.590;9.956;2022-12-18T02:57:24;30.65;;;12.52;;
12597;SDS011;6364;53.590;9.956;2022-12-18T03:00:08;25.10;;;10.85;;
12597;SDS011;6364;53.590;9.956;2022-12-18T03:02:38;23.63;;;11.85;;
12597;SDS011;6364;53.590;9.956;2022-12-18T03:07:44;24.30;;;12.30;;
12597;SDS011;6364;53.590;9.956;2022-12-18T03:10:14;27.63;;;12.23;;
12597;SDS011;6364;53.590;9.956;2022-12-18T03:12:51;26.08;;;12.65;;
12597;SDS011;6364;53.590;9.956;2022-12-18T03:20:20;21.80;;;11.43;;
12597;SDS011;6364;53.590;9.956;2022-12-18T03:22:47;25.75;;;11.63;;
12597;SDS011;6364;53.590;9.956;2022-12-18T03:25:16;22.80;;;11.50;;
12597;SDS011;6364;53.590;9.956;2022-12-18T03:27:44;20.95;;;11.32;;
12597;SDS011;6364;53.590;9.956;2022-12-18T03:30:13;21.42;;;10.98;;
12597;SDS011;6364;53.590;9.956;2022-12-18T03:32:41;26.00;;;10.98;;
12597;SDS011;6364;53.590;9.956;2022-12-18T03:35:09;23.17;;;11.45;;
12597;SDS011;6364;53.590;9.956;2022-12-18T03:37:36;27.17;;;11.55;;
12597;SDS011;6364;53.590;9.956;2022-12-18T03:40:01;22.77;;;11.05;;
12597;SDS011;6364;53.590;9.956;2022-12-18T03:45:18;21.08;;;11.93;;
12597;SDS011;6364;53.590;9.956;2022-12-18T03:48:01;22.75;;;12.25;;
12597;SDS011;6364;53.590;9.956;2022-12-18T03:50:37;21.88;;;11.38;;
12597;SDS011;6364;53.590;9.956;2022-12-18T03:55:41;27.40;;;11.43;;
12597;SDS011;6364;53.590;9.956;2022-12-18T03:58:07;25.15;;;11.50;;
12597;SDS011;6364;53.590;9.956;2022-12-18T04:00:34;20.95;;;11.27;;
12597;SDS011;6364;53.590;9.956;2022-12-18T04:02:59;24.63;;;11.85;;
12597;SDS011;6364;53.590;9.956;2022-12-18T04:05:26;28.33;;;12.20;;
12597;SDS011;6364;53.590;9.956;2022-12-18T04:07:52;22.45;;;11.85;;
12597;SDS011;6364;53.590;9.956;2022-12-18T04:10:18;20.20;;;10.80;;
12597;SDS011;6364;53.590;9.956;2022-12-18T04:12:44;24.20;;;11.55;;
12597;SDS011;6364;53.590;9.956;2022-12-18T04:15:10;23.05;;;12.15;;
12597;SDS011;6364;53.590;9.956;2022-12-18T04:17:35;23.83;;;11.13;;
12597;SDS011;6364;53.590;9.956;2022-12-18T04:20:01;22.95;;;11.15;;
12597;SDS011;6364;53.590;9.956;2022-12-18T04:22:27;23.00;;;10.75;;
12597;SDS011;6364;53.590;9.956;2022-12-18T04:24:52;23.33;;;11.60;;
12597;SDS011;6364;53.590;9.956;2022-12-18T04:27:17;21.63;;;11.75;;
12597;SDS011;6364;53.590;9.956;2022-12-18T04:29:43;22.90;;;12.10;;
12597;SDS011;6364;53.590;9.956;2022-12-18T04:32:08;22.48;;;11.05;;
12597;SDS011;6364;53.590;9.956;2022-12-18T04:34:34;20.73;;;11.07;;
12597;SDS011;6364;53.590;9.956;2022-12-18T04:36:59;29.55;;;11.75;;
12597;SDS011;6364;53.590;9.956;2022-12-18T04:39:24;26.77;;;12.75;;
12597;SDS011;6364;53.590;9.956;2022-12-18T04:41:50;26.70;;;12.45;;
12597;SDS011;6364;53.590;9.956;2022-12-18T04:44:15;24.17;;;12.00;;
12597;SDS011;6364;53.590;9.956;2022-12-18T04:46:40;24.83;;;11.73;;
12597;SDS011;6364;53.590;9.956;2022-12-18T04:49:06;25.10;;;11.27;;
12597;SDS011;6364;53.590;9.956;2022-12-18T04:51:31;22.20;;;11.13;;
12597;SDS011;6364;53.590;9.956;2022-12-18T04:53:56;22.05;;;11.35;;
12597;SDS011;6364;53.590;9.956;2022-12-18T04:56:22;22.08;;;11.07;;
12597;SDS011;6364;53.590;9.956;2022-12-18T04:58:47;26.25;;;11.32;;
12597;SDS011;6364;53.590;9.956;2022-12-18T05:01:13;21.02;;;11.63;;
12597;SDS011;6364;53.590;9.956;2022-12-18T05:03:40;23.08;;;11.13;;
12597;SDS011;6364;53.590;9.956;2022-12-18T05:06:06;25.20;;;12.23;;
12597;SDS011;6364;53.590;9.956;2022-12-18T05:08:32;20.77;;;11.20;;
12597;SDS011;6364;53.590;9.956;2022-12-18T05:11:08;20.42;;;10.18;;
12597;SDS011;6364;53.590;9.956;2022-12-18T05:13:35;22.60;;;11.63;;
12597;SDS011;6364;53.590;9.956;2022-12-18T05:16:01;21.73;;;11.18;;
12597;SDS011;6364;53.590;9.956;2022-12-18T05:18:26;23.00;;;11.75;;
12597;SDS011;6364;53.590;9.956;2022-12-18T05:20:52;23.05;;;11.07;;
12597;SDS011;6364;53.590;9.956;2022-12-18T05:23:18;19.08;;;10.32;;
12597;SDS011;6364;53.590;9.956;2022-12-18T05:25:51;21.33;;;10.80;;
12597;SDS011;6364;53.590;9.956;2022-12-18T05:28:17;19.02;;;8.68;;
12597;SDS011;6364;53.590;9.956;2022-12-18T05:30:44;22.23;;;10.65;;
12597;SDS011;6364;53.590;9.956;2022-12-18T05:33:12;22.67;;;11.48;;
12597;SDS011;6364;53.590;9.956;2022-12-18T05:35:38;19.95;;;11.10;;
12597;SDS011;6364;53.590;9.956;2022-12-18T05:38:03;19.77;;;11.13;;
12597;SDS011;6364;53.590;9.956;2022-12-18T05:40:28;25.05;;;11.45;;
12597;SDS011;6364;53.590;9.956;2022-12-18T05:42:53;20.02;;;10.80;;
12597;SDS011;6364;53.590;9.956;2022-12-18T05:45:19;19.60;;;10.45;;
12597;SDS011;6364;53.590;9.956;2022-12-18T05:47:45;20.38;;;11.05;;
12597;SDS011;6364;53.590;9.956;2022-12-18T05:50:10;22.23;;;11.02;;
12597;SDS011;6364;53.590;9.956;2022-12-18T05:52:35;21.60;;;10.93;;
12597;SDS011;6364;53.590;9.956;2022-12-18T05:55:01;20.40;;;10.70;;
12597;SDS011;6364;53.590;9.956;2022-12-18T05:57:26;17.38;;;10.07;;
12597;SDS011;6364;53.590;9.956;2022-12-18T05:59:51;24.80;;;11.32;;
12597;SDS011;6364;53.590;9.956;2022-12-18T06:02:17;26.70;;;11.52;;
12597;SDS011;6364;53.590;9.956;2022-12-18T06:04:42;20.55;;;11.45;;
12597;SDS011;6364;53.590;9.956;2022-12-18T06:07:08;24.42;;;11.23;;
12597;SDS011;6364;53.590;9.956;2022-12-18T06:09:33;22.33;;;11.65;;
12597;SDS011;6364;53.590;9.956;2022-12-18T06:11:58;25.80;;;11.73;;
12597;SDS011;6364;53.590;9.956;2022-12-18T06:14:24;22.27;;;11.38;;
12597;SDS011;6364;53.590;9.956;2022-12-18T06:16:50;17.73;;;9.75;;
12597;SDS011;6364;53.590;9.956;2022-12-18T06:19:16;19.95;;;10.70;;
12597;SDS011;6364;53.590;9.956;2022-12-18T06:21:41;22.60;;;10.75;;
12597;SDS011;6364;53.590;9.956;2022-12-18T06:24:07;17.80;;;9.38;;
12597;SDS011;6364;53.590;9.956;2022-12-18T06:26:32;20.60;;;11.07;;
12597;SDS011;6364;53.590;9.956;2022-12-18T06:28:58;21.45;;;10.80;;
12597;SDS011;6364;53.590;9.956;2022-12-18T06:31:23;24.98;;;11.60;;
12597;SDS011;6364;53.590;9.956;2022-12-18T06:33:49;22.15;;;10.60;;
12597;SDS011;6364;53.590;9.956;2022-12-18T06:36:14;21.27;;;11.52;;
12597;SDS011;6364;53.590;9.956;2022-12-18T06:38:41;22.77;;;10.60;;
12597;SDS011;6364;53.590;9.956;2022-12-18T06:41:08;23.05;;;11.35;;
12597;SDS011;6364;53.590;9.956;2022-12-18T06:43:33;18.88;;;11.15;;
12597;SDS011;6364;53.590;9.956;2022-12-18T06:45:59;21.90;;;10.70;;
12597;SDS011;6364;53.590;9.956;2022-12-18T06:48:25;21.67;;;9.95;;
12597;SDS011;6364;53.590;9.956;2022-12-18T06:50:50;22.30;;;10.85;;
12597;SDS011;6364;53.590;9.956;2022-12-18T06:53:16;18.45;;;9.15;;
12597;SDS011;6364;53.590;9.956;2022-12-18T06:55:41;18.50;;;9.85;;
12597;SDS011;6364;53.590;9.956;2022-12-18T06:58:06;23.35;;;10.68;;
12597;SDS011;6364;53.590;9.956;2022-12-18T07:00:32;18.00;;;10.48;;
12597;SDS011;6364;53.590;9.956;2022-12-18T07:02:57;22.33;;;11.90;;
12597;SDS011;6364;53.590;9.956;2022-12-18T07:05:22;21.73;;;10.30;;
12597;SDS011;6364;53.590;9.956;2022-12-18T07:07:47;25.75;;;10.65;;
12597;SDS011;6364;53.590;9.956;2022-12-18T07:10:13;20.70;;;10.45;;
12597;SDS011;6364;53.590;9.956;2022-12-18T07:12:38;22.05;;;11.43;;
12597;SDS011;6364;53.590;9.956;2022-12-18T07:15:04;21.42;;;10.50;;
12597;SDS011;6364;53.590;9.956;2022-12-18T07:17:29;22.73;;;11.38;;
12597;SDS011;6364;53.590;9.956;2022-12-18T07:19:55;21.02;;;10.82;;
12597;SDS011;6364;53.590;9.956;2022-12-18T07:22:20;23.92;;;9.80;;
12597;SDS011;6364;53.590;9.956;2022-12-18T07:24:45;20.85;;;10.85;;
12597;SDS011;6364;53.590;9.956;2022-12-18T07:27:11;20.63;;;10.43;;
12597;SDS011;6364;53.590;9.956;2022-12-18T07:29:36;21.35;;;11.50;;
12597;SDS011;6364;53.590;9.956;2022-12-18T07:32:01;26.15;;;11.38;;
12597;SDS011;6364;53.590;9.956;2022-12-18T07:34:27;19.83;;;11.43;;
12597;SDS011;6364;53.590;9.956;2022-12-18T07:36:52;21.48;;;11.43;;
12597;SDS011;6364;53.590;9.956;2022-12-18T07:39:17;21.80;;;10.63;;
12597;SDS011;6364;53.590;9.956;2022-12-18T07:41:43;20.77;;;10.88;;
12597;SDS011;6364;53.590;9.956;2022-12-18T07:44:11;26.10;;;11.55;;
12597;SDS011;6364;53.590;9.956;2022-12-18T07:46:36;21.17;;;10.77;;
12597;SDS011;6364;53.590;9.956;2022-12-18T07:49:02;24.95;;;12.13;;
12597;SDS011;6364;53.590;9.956;2022-12-18T07:51:27;21.60;;;10.77;;
12597;SDS011;6364;53.590;9.956;2022-12-18T07:53:52;21.88;;;11.25;;
12597;SDS011;6364;53.590;9.956;2022-12-18T07:56:18;19.02;;;11.00;;
12597;SDS011;6364;53.590;9.956;2022-12-18T07:58:48;21.33;;;11.98;;
12597;SDS011;6364;53.590;9.956;2022-12-18T08:01:13;18.13;;;10.10;;
12597;SDS011;6364;53.590;9.956;2022-12-18T08:03:39;18.50;;;11.07;;
12597;SDS011;6364;53.590;9.956;2022-12-18T08:06:06;23.63;;;11.82;;
12597;SDS011;6364;53.590;9.956;2022-12-18T08:08:32;26.25;;;12.05;;
12597;SDS011;6364;53.590;9.956;2022-12-18T08:10:58;21.98;;;11.07;;
12597;SDS011;6364;53.590;9.956;2022-12-18T08:13:24;17.50;;;9.98;;
12597;SDS011;6364;53.590;9.956;2022-12-18T08:15:56;23.17;;;11.13;;
12597;SDS011;6364;53.590;9.956;2022-12-18T08:18:22;20.88;;;10.10;;
12597;SDS011;6364;53.590;9.956;2022-12-18T08:20:47;22.33;;;11.15;;
12597;SDS011;6364;53.590;9.956;2022-12-18T08:23:12;21.40;;;10.55;;
12597;SDS011;6364;53.590;9.956;2022-12-18T08:25:38;23.50;;;11.43;;
12597;SDS011;6364;53.590;9.956;2022-12-18T08:28:03;25.42;;;11.52;;
12597;SDS011;6364;53.590;9.956;2022-12-18T08:30:28;22.55;;;11.52;;
12597;SDS011;6364;53.590;9.956;2022-12-18T08:32:54;24.83;;;11.07;;
12597;SDS011;6364;53.590;9.956;2022-12-18T08:35:19;23.67;;;11.10;;
12597;SDS011;6364;53.590;9.956;2022-12-18T08:37:44;21.25;;;10.68;;
12597;SDS011;6364;53.590;9.956;2022-12-18T08:40:10;20.55;;;11.35;;
12597;SDS011;6364;53.590;9.956;2022-12-18T08:42:35;22.67;;;10.63;;
12597;SDS011;6364;53.590;9.956;2022-12-18T08:45:21;24.90;;;10.60;;
12597;SDS011;6364;53.590;9.956;2022-12-18T08:47:46;20.95;;;10.52;;
12597;SDS011;6364;53.590;9.956;2022-12-18T08:50:11;23.02;;;11.43;;
12597;SDS011;6364;53.590;9.956;2022-12-18T08:52:37;22.02;;;11.80;;
12597;SDS011;6364;53.590;9.956;2022-12-18T08:55:02;23.88;;;12.30;;
12597;SDS011;6364;53.590;9.956;2022-12-18T08:57:28;25.45;;;11.13;;
12597;SDS011;6364;53.590;9.956;2022-12-18T08:59:53;17.25;;;10.00;;
12597;SDS011;6364;53.590;9.956;2022-12-18T09:02:19;21.58;;;11.48;;
12597;SDS011;6364;53.590;9.956;2022-12-18T09:04:46;19.48;;;10.73;;
12597;SDS011;6364;53.590;9.956;2022-12-18T09:07:12;20.90;;;10.77;;
12597;SDS011;6364;53.590;9.956;2022-12-18T09:09:37;22.83;;;11.27;;
12597;SDS011;6364;53.590;9.956;2022-12-18T09:12:03;21.10;;;10.82;;
12597;SDS011;6364;53.590;9.956;2022-12-18T09:14:28;19.65;;;10.68;;
12597;SDS011;6364;53.590;9.956;2022-12-18T09:16:53;19.80;;;11.25;;
12597;SDS011;6364;53.590;9.956;2022-12-18T09:19:19;22.33;;;10.70;;
12597;SDS011;6364;53.590;9.956;2022-12-18T09:21:44;25.10;;;10.98;;
12597;SDS011;6364;53.590;9.956;2022-12-18T09:24:12;20.58;;;10.75;;
12597;SDS011;6364;53.590;9.956;2022-12-18T09:26:38;20.80;;;10.95;;
12597;SDS011;6364;53.590;9.956;2022-12-18T09:29:04;21.05;;;11.52;;
12597;SDS011;6364;53.590;9.956;2022-12-18T09:31:29;26.58;;;11.80;;
12597;SDS011;6364;53.590;9.956;2022-12-18T09:33:55;19.15;;;10.98;;
12597;SDS011;6364;53.590;9.956;2022-12-18T09:36:21;25.40;;;11.43;;
12597;SDS011;6364;53.590;9.956;2022-12-18T09:38:46;22.30;;;11.73;;
12597;SDS011;6364;53.590;9.956;2022-12-18T09:43:59;17.88;;;10.57;;
12597;SDS011;6364;53.590;9.956;2022-12-18T09:46:28;20.25;;;11.13;;
12597;SDS011;6364;53.590;9.956;2022-12-18T09:48:57;19.40;;;10.57;;
12597;SDS011;6364;53.590;9.956;2022-12-18T09:54:24;17.60;;;9.77;;
12597;SDS011;6364;53.590;9.956;2022-12-18T09:56:52;19.88;;;10.38;;
12597;SDS011;6364;53.590;9.956;2022-12-18T09:59:20;21.42;;;10.43;;
12597;SDS011;6364;53.590;9.956;2022-12-18T10:01:48;21.27;;;10.70;;
12597;SDS011;6364;53.590;9.956;2022-12-18T10:04:13;22.25;;;11.13;;
12597;SDS011;6364;53.590;9.956;2022-12-18T10:06:41;22.50;;;11.35;;
12597;SDS011;6364;53.590;9.956;2022-12-18T10:12:18;20.83;;;10.45;;
12597;SDS011;6364;53.590;9.956;2022-12-18T10:14:54;20.02;;;10.65;;
12597;SDS011;6364;53.590;9.956;2022-12-18T10:17:38;24.33;;;10.30;;
12597;SDS011;6364;53.590;9.956;2022-12-18T10:20:27;19.40;;;10.32;;
12597;SDS011;6364;53.590;9.956;2022-12-18T10:25:53;18.63;;;10.20;;
12597;SDS011;6364;53.590;9.956;2022-12-18T10:28:21;24.15;;;9.80;;
12597;SDS011;6364;53.590;9.956;2022-12-18T10:30:46;17.92;;;9.52;;
12597;SDS011;6364;53.590;9.956;2022-12-18T10:33:13;19.15;;;9.32;;
12597;SDS011;6364;53.590;9.956;2022-12-18T10:35:41;17.92;;;10.15;;
12597;SDS011;6364;53.590;9.956;2022-12-18T10:41:04;16.67;;;9.75;;
12597;SDS011;6364;53.590;9.956;2022-12-18T10:44:10;17.85;;;9.65;;
12597;SDS011;6364;53.590;9.956;2022-12-18T10:46:37;18.63;;;9.65;;
12597;SDS011;6364;53.590;9.956;2022-12-18T10:49:03;18.65;;;10.50;;
12597;SDS011;6364;53.590;9.956;2022-12-18T10:51:30;18.63;;;10.15;;
12597;SDS011;6364;53.590;9.956;2022-12-18T10:56:48;20.67;;;8.98;;
12597;SDS011;6364;53.590;9.956;2022-12-18T10:59:14;18.02;;;9.40;;
12597;SDS011;6364;53.590;9.956;2022-12-18T11:04:16;18.33;;;9.73;;
12597;SDS011;6364;53.590;9.956;2022-12-18T11:06:57;15.68;;;9.40;;
12597;SDS011;6364;53.590;9.956;2022-12-18T11:09:24;19.55;;;10.63;;
12597;SDS011;6364;53.590;9.956;2022-12-18T11:11:53;19.73;;;9.25;;
12597;SDS011;6364;53.590;9.956;2022-12-18T11:14:24;17.73;;;9.75;;
12597;SDS011;6364;53.590;9.956;2022-12-18T11:16:54;16.10;;;9.45;;
12597;SDS011;6364;53.590;9.956;2022-12-18T11:19:33;20.00;;;10.52;;
12597;SDS011;6364;53.590;9.956;2022-12-18T11:22:00;16.70;;;8.82;;
12597;SDS011;6364;53.590;9.956;2022-12-18T11:24:31;17.25;;;9.15;;
12597;SDS011;6364;53.590;9.956;2022-12-18T11:26:59;19.17;;;10.10;;
12597;SDS011;6364;53.590;9.956;2022-12-18T11:29:28;17.98;;;9.43;;
12597;SDS011;6364;53.590;9.956;2022-12-18T11:32:13;18.38;;;9.98;;
12597;SDS011;6364;53.590;9.956;2022-12-18T11:34:49;21.63;;;11.27;;
12597;SDS011;6364;53.590;9.956;2022-12-18T11:37:17;21.33;;;11.43;;
12597;SDS011;6364;53.590;9.956;2022-12-18T11:39:46;19.20;;;11.43;;
12597;SDS011;6364;53.590;9.956;2022-12-18T11:42:20;22.30;;;11.23;;
12597;SDS011;6364;53.590;9.956;2022-12-18T11:44:58;19.80;;;11.05;;
12597;SDS011;6364;53.590;9.956;2022-12-18T11:50:10;19.00;;;10.48;;
12597;SDS011;6364;53.590;9.956;2022-12-18T11:52:39;21.90;;;10.85;;
12597;SDS011;6364;53.590;9.956;2022-12-18T11:58:07;23.80;;;11.07;;
12597;SDS011;6364;53.590;9.956;2022-12-18T12:00:39;22.25;;;11.48;;
12597;SDS011;6364;53.590;9.956;2022-12-18T12:03:15;21.55;;;11.70;;
12597;SDS011;6364;53.590;9.956;2022-12-18T12:05:49;20.52;;;12.00;;
12597;SDS011;6364;53.590;9.956;2022-12-18T12:08:43;20.50;;;11.23;;
12597;SDS011;6364;53.590;9.956;2022-12-18T12:16:58;28.05;;;13.27;;
12597;SDS011;6364;53.590;9.956;2022-12-18T12:22:13;26.92;;;13.15;;
12597;SDS011;6364;53.590;9.956;2022-12-18T12:24:49;25.02;;;13.40;;
12597;SDS011;6364;53.590;9.956;2022-12-18T12:27:40;23.08;;;12.35;;
12597;SDS011;6364;53.590;9.956;2022-12-18T12:30:26;21.55;;;11.57;;
12597;SDS011;6364;53.590;9.956;2022-12-18T12:33:19;24.95;;;11.88;;
12597;SDS011;6364;53.590;9.956;2022-12-18T12:36:00;23.52;;;12.18;;
12597;SDS011;6364;53.590;9.956;2022-12-18T12:38:42;24.58;;;11.85;;
12597;SDS011;6364;53.590;9.956;2022-12-18T12:41:12;26.55;;;11.93;;
12597;SDS011;6364;53.590;9.956;2022-12-18T12:43:58;22.42;;;12.27;;
12597;SDS011;6364;53.590;9.956;2022-12-18T12:46:26;24.55;;;11.75;;
12597;SDS011;6364;53.590;9.956;2022-12-18T12:48:55;22.98;;;12.30;;
12597;SDS011;6364;53.590;9.956;2022-12-18T12:51:25;24.17;;;11.68;;
12597;SDS011;6364;53.590;9.956;2022-12-18T12:53:53;24.75;;;12.45;;
12597;SDS011;6364;53.590;9.956;2022-12-18T12:56:20;24.50;;;12.30;;
12597;SDS011;6364;53.590;9.956;2022-12-18T13:09:02;26.58;;;12.70;;
12597;SDS011;6364;53.590;9.956;2022-12-18T13:11:32;25.50;;;11.73;;
12597;SDS011;6364;53.590;9.956;2022-12-18T13:14:34;21.80;;;11.95;;
12597;SDS011;6364;53.590;9.956;2022-12-18T13:22:33;23.25;;;11.25;;
12597;SDS011;6364;53.590;9.956;2022-12-18T13:25:26;24.95;;;12.52;;
12597;SDS011;6364;53.590;9.956;2022-12-18T13:40:57;35.72;;;15.07;;
12597;SDS011;6364;53.590;9.956;2022-12-18T13:43:26;32.75;;;14.40;;
12597;SDS011;6364;53.590;9.956;2022-12-18T13:46:06;32.47;;;15.03;;
12597;SDS011;6364;53.590;9.956;2022-12-18T13:48:43;34.28;;;13.98;;
12597;SDS011;6364;53.590;9.956;2022-12-18T13:51:16;24.63;;;11.32;;
12597;SDS011;6364;53.590;9.956;2022-12-18T13:53:43;30.25;;;13.10;;
12597;SDS011;6364;53.590;9.956;2022-12-18T13:56:14;40.92;;;15.32;;
12597;SDS011;6364;53.590;9.956;2022-12-18T13:59:10;35.20;;;14.27;;
12597;SDS011;6364;53.590;9.956;2022-12-18T14:01:57;31.13;;;14.60;;
12597;SDS011;6364;53.590;9.956;2022-12-18T14:06:55;33.08;;;14.75;;
12597;SDS011;6364;53.590;9.956;2022-12-18T14:09:27;35.13;;;15.35;;
12597;SDS011;6364;53.590;9.956;2022-12-18T14:11:54;35.90;;;15.48;;
12597;SDS011;6364;53.590;9.956;2022-12-18T14:14:41;41.35;;;16.73;;
12597;SDS011;6364;53.590;9.956;2022-12-18T14:17:11;37.65;;;15.00;;
12597;SDS011;6364;53.590;9.956;2022-12-18T14:19:36;33.20;;;14.98;;
12597;SDS011;6364;53.590;9.956;2022-12-18T14:22:02;33.50;;;15.10;;
12597;SDS011;6364;53.590;9.956;2022-12-18T14:24:28;28.98;;;13.85;;
12597;SDS011;6364;53.590;9.956;2022-12-18T14:26:57;37.90;;;15.43;;
12597;SDS011;6364;53.590;9.956;2022-12-18T14:29:38;35.38;;;15.95;;
12597;SDS011;6364;53.590;9.956;2022-12-18T14:32:11;36.75;;;15.52;;
12597;SDS011;6364;53.590;9.956;2022-12-18T14:34:51;35.22;;;15.65;;
12597;SDS011;6364;53.590;9.956;2022-12-18T14:37:23;32.35;;;13.75;;
12597;SDS011;6364;53.590;9.956;2022-12-18T14:39:53;39.55;;;15.63;;
12597;SDS011;6364;53.590;9.956;2022-12-18T14:42:19;37.78;;;16.33;;
12597;SDS011;6364;53.590;9.956;2022-12-18T14:44:45;42.65;;;16.55;;
12597;SDS011;6364;53.590;9.956;2022-12-18T14:47:13;35.90;;;16.05;;
12597;SDS011;6364;53.590;9.956;2022-12-18T14:49:40;41.20;;;16.63;;
12597;SDS011;6364;53.590;9.956;2022-12-18T14:52:15;40.42;;;16.58;;
12597;SDS011;6364;53.590;9.956;2022-12-18T14:54:46;39.55;;;15.90;;
12597;SDS011;6364;53.590;9.956;2022-12-18T14:57:22;38.28;;;16.83;;
12597;SDS011;6364;53.590;9.956;2022-12-18T14:59:49;38.97;;;16.40;;
12597;SDS011;6364;53.590;9.956;2022-12-18T15:04:43;44.78;;;18.42;;
12597;SDS011;6364;53.590;9.956;2022-12-18T15:07:18;43.22;;;17.45;;
12597;SDS011;6364;53.590;9.956;2022-12-18T15:13:06;42.90;;;17.30;;
12597;SDS011;6364;53.590;9.956;2022-12-18T15:23:17;46.20;;;18.05;;
12597;SDS011;6364;53.590;9.956;2022-12-18T15:28:22;39.53;;;16.23;;
12597;SDS011;6364;53.590;9.956;2022-12-18T15:30:58;46.92;;;19.48;;
12597;SDS011;6364;53.590;9.956;2022-12-18T15:33:35;39.80;;;17.00;;
12597;SDS011;6364;53.590;9.956;2022-12-18T15:36:04;46.95;;;18.23;;
12597;SDS011;6364;53.590;9.956;2022-12-18T15:38:39;40.13;;;17.55;;
12597;SDS011;6364;53.590;9.956;2022-12-18T15:41:05;38.90;;;17.20;;
12597;SDS011;6364;53.590;9.956;2022-12-18T15:43:30;45.40;;;18.48;;
12597;SDS011;6364;53.590;9.956;2022-12-18T15:45:59;43.88;;;15.60;;
12597;SDS011;6364;53.590;9.956;2022-12-18T15:48:32;38.88;;;16.48;;
12597;SDS011;6364;53.590;9.956;2022-12-18T15:50:59;47.97;;;18.02;;
12597;SDS011;6364;53.590;9.956;2022-12-18T15:53:29;47.35;;;18.10;;
12597;SDS011;6364;53.590;9.956;2022-12-18T15:55:56;45.70;;;18.30;;
12597;SDS011;6364;53.590;9.956;2022-12-18T15:58:40;44.13;;;18.48;;
12597;SDS011;6364;53.590;9.956;2022-12-18T16:01:07;49.90;;;17.88;;
12597;SDS011;6364;53.590;9.956;2022-12-18T16:03:32;44.03;;;17.23;;
12597;SDS011;6364;53.590;9.956;2022-12-18T16:05:58;43.58;;;17.77;;
12597;SDS011;6364;53.590;9.956;2022-12-18T16:08:25;44.78;;;18.42;;
12597;SDS011;6364;53.590;9.956;2022-12-18T16:10:50;42.90;;;18.00;;
12597;SDS011;6364;53.590;9.956;2022-12-18T16:13:16;48.65;;;18.42;;
12597;SDS011;6364;53.590;9.956;2022-12-18T16:15:44;47.47;;;18.25;;
12597;SDS011;6364;53.590;9.956;2022-12-18T16:18:09;43.90;;;17.52;;
12597;SDS011;6364;53.590;9.956;2022-12-18T16:20:34;38.90;;;17.10;;
12597;SDS011;6364;53.590;9.956;2022-12-18T16:23:00;44.35;;;18.17;;
12597;SDS011;6364;53.590;9.956;2022-12-18T16:25:27;46.13;;;17.98;;
12597;SDS011;6364;53.590;9.956;2022-12-18T16:27:53;40.33;;;16.67;;
12597;SDS011;6364;53.590;9.956;2022-12-18T16:30:21;43.25;;;18.00;;
12597;SDS011;6364;53.590;9.956;2022-12-18T16:32:48;43.42;;;18.83;;